Portada
METAR-TAF:

METAR-TAF

Aeroports :

Penn Valley Airport

Selinsgrove, Pennsilvània, Estats Units d'Amèrica

latitud: 40-49-09N, longitud: 076-51-58W, altitud: 137 m

Observació

L'informe es va fer fa 24 minuts, a les 18:14 UTC
Vent 6 kt amb direcció variable
Temperatura 21°C
Humitat 64%
Pressió 1023 hPa
Visibilitat: 16.1 km
Núvols disperses a una alçada de 2400 ft
Cel ennuvolat a una alçada de 6000 ft

METAR: KSEG 251814Z AUTO VRB06KT 10SM SCT024 BKN060 21/14 A3020 RMK AO2 T02110144

Hora: 14:38 (18:38 UTC)


TAF: manca

Observacions i pronòstics meteorològics de més de 4000 aeroports (METAR i TAF).

Les estacions disponibles són els punts grocs i vermells al mapa.

Posi el ratolí al punt desitjat per veure el nom de l'estació.

Feu clic per veure les observacions i els pronòstics meteorològics.

Per canviar el mapa: feu clic els botons verds amb una creu de color negre per apropar; al botó verd amb un guió per allunyar la imatge; o en les fletxes verdes per a mapes adjacents.


METAR-TAF: